createdAt,value
2022-08-28T00:01:40.098Z,57.50
2022-08-28T00:05:24.998Z,58.20
2022-08-28T00:09:08.187Z,59.50
2022-08-28T00:12:55.767Z,59.20
2022-08-28T00:16:38.332Z,60.00
2022-08-28T00:20:21.386Z,60.00
2022-08-28T00:24:03.516Z,60.60
2022-08-28T00:27:55.319Z,60.70
2022-08-28T00:31:50.907Z,60.80
2022-08-28T00:35:32.972Z,60.80
2022-08-28T00:39:15.156Z,61.00
2022-08-28T00:42:59.094Z,61.00
2022-08-28T00:46:43.922Z,61.00
2022-08-28T00:50:29.057Z,62.20
2022-08-28T00:54:11.056Z,62.30
2022-08-28T00:57:56.546Z,61.80
2022-08-28T01:01:39.208Z,63.40
2022-08-28T01:05:21.938Z,62.70
2022-08-28T01:09:04.587Z,63.40
2022-08-28T01:12:47.597Z,63.90
2022-08-28T01:16:33.014Z,64.30
2022-08-28T01:20:21.186Z,64.80
2022-08-28T01:24:14.865Z,66.50
2022-08-28T01:27:58.182Z,67.00
2022-08-28T01:31:41.244Z,66.40
2022-08-28T01:35:28.049Z,67.40
2022-08-28T01:39:16.451Z,69.80
2022-08-28T01:43:19.057Z,70.30
2022-08-28T01:47:01.202Z,72.90
2022-08-28T01:50:44.215Z,68.90
2022-08-28T01:54:26.664Z,70.60
2022-08-28T01:58:10.883Z,71.50
2022-08-28T02:01:52.938Z,72.10
2022-08-28T02:05:35.307Z,72.00
2022-08-28T02:09:17.734Z,72.50
2022-08-28T02:13:00.287Z,73.30
2022-08-28T02:16:42.470Z,74.10
2022-08-28T02:20:29.075Z,74.80
2022-08-28T02:24:11.144Z,78.00
2022-08-28T02:28:02.793Z,75.50
2022-08-28T02:31:45.314Z,77.10
2022-08-28T02:35:31.216Z,77.30
2022-08-28T02:39:16.665Z,77.80
2022-08-28T02:42:58.778Z,78.20
2022-08-28T02:46:41.291Z,78.60
2022-08-28T02:50:24.502Z,78.90
2022-08-28T02:54:06.727Z,79.90
2022-08-28T02:57:49.747Z,79.60
2022-08-28T03:01:31.974Z,80.60
2022-08-28T03:05:19.243Z,80.30
2022-08-28T03:09:04.900Z,83.70
2022-08-28T03:12:48.348Z,81.20
2022-08-28T03:16:32.525Z,82.80
2022-08-28T03:20:16.075Z,83.10
2022-08-28T03:23:58.297Z,84.10
2022-08-28T03:27:40.614Z,83.70
2022-08-28T03:31:25.673Z,84.20
2022-08-28T03:35:08.785Z,86.50
2022-08-28T03:38:52.556Z,85.40
2022-08-28T03:42:35.814Z,86.60
2022-08-28T03:46:22.859Z,86.60
2022-08-28T03:50:08.236Z,88.90
2022-08-28T03:53:54.057Z,88.20
2022-08-28T03:57:36.629Z,88.20
2022-08-28T04:01:19.854Z,89.10
2022-08-28T04:05:01.819Z,89.40
2022-08-28T04:08:44.195Z,88.90
2022-08-28T04:12:26.361Z,89.10
2022-08-28T04:16:12.668Z,89.50
2022-08-28T04:19:54.555Z,91.30
2022-08-28T04:23:38.232Z,90.30
2022-08-28T04:27:20.522Z,90.60
2022-08-28T04:31:03.721Z,90.50
2022-08-28T04:34:46.167Z,90.60
2022-08-28T04:38:30.761Z,90.90
2022-08-28T04:42:12.929Z,90.80
2022-08-28T04:45:55.033Z,90.80
2022-08-28T04:49:38.653Z,90.80
2022-08-28T04:53:20.765Z,91.60
2022-08-28T04:57:02.962Z,90.90
2022-08-28T05:00:49.614Z,91.00
2022-08-28T05:04:31.701Z,91.60
2022-08-28T05:08:15.313Z,91.40
2022-08-28T05:12:04.258Z,92.10
2022-08-28T05:15:49.678Z,91.80
2022-08-28T05:19:33.225Z,92.80
2022-08-28T05:23:17.202Z,92.80
2022-08-28T05:26:59.138Z,92.60
2022-08-28T05:30:42.023Z,92.20
2022-08-28T05:34:24.105Z,92.70
2022-08-28T05:38:07.233Z,92.50
2022-08-28T05:41:49.295Z,92.50
2022-08-28T05:45:31.462Z,92.40
2022-08-28T05:49:14.490Z,92.40
2022-08-28T05:52:56.417Z,92.60
2022-08-28T05:56:40.582Z,92.40
2022-08-28T06:00:22.475Z,92.60
2022-08-28T06:04:17.980Z,92.00
2022-08-28T06:08:00.011Z,94.00
2022-08-28T06:11:46.088Z,92.10
2022-08-28T06:15:28.201Z,92.40
2022-08-28T06:19:11.487Z,92.30
2022-08-28T06:22:53.543Z,92.40
2022-08-28T06:26:35.534Z,92.20
2022-08-28T06:30:17.823Z,92.30
2022-08-28T06:34:01.410Z,92.40
2022-08-28T06:37:44.413Z,92.60
2022-08-28T06:41:27.333Z,92.50
2022-08-28T06:45:09.679Z,92.70
2022-08-28T06:48:52.110Z,92.80
2022-08-28T06:52:34.146Z,92.90
2022-08-28T06:56:26.102Z,92.90
2022-08-28T07:00:09.741Z,93.50
2022-08-28T07:03:53.959Z,93.10
2022-08-28T07:07:36.371Z,93.60
2022-08-28T07:11:26.019Z,93.20
2022-08-28T07:15:08.976Z,94.10
2022-08-28T07:18:51.078Z,93.50
2022-08-28T07:22:33.279Z,93.60
2022-08-28T07:26:19.208Z,93.30
2022-08-28T07:30:02.087Z,93.70
2022-08-28T07:33:44.246Z,93.10
2022-08-28T07:37:26.513Z,93.00
2022-08-28T07:41:20.798Z,92.80
2022-08-28T07:45:02.916Z,93.50
2022-08-28T07:48:47.202Z,92.60
2022-08-28T07:52:29.548Z,92.60
2022-08-28T07:56:11.706Z,92.20
2022-08-28T07:59:53.809Z,91.80
2022-08-28T08:03:35.983Z,91.60
2022-08-28T08:07:18.149Z,91.20
2022-08-28T08:11:04.709Z,90.70
2022-08-28T08:14:49.593Z,90.30
2022-08-28T08:18:31.613Z,89.70
2022-08-28T08:22:14.044Z,89.50
2022-08-28T08:25:58.610Z,89.90
2022-08-28T08:29:40.515Z,90.00
2022-08-28T08:33:22.829Z,91.40
2022-08-28T08:37:05.827Z,94.00
2022-08-28T08:40:48.401Z,93.00
2022-08-28T08:44:34.700Z,91.30
2022-08-28T08:48:33.723Z,86.90
2022-08-28T08:52:23.747Z,83.30
2022-08-28T08:56:06.392Z,82.20
2022-08-28T08:59:48.285Z,88.70
2022-08-28T09:03:48.952Z,89.90
2022-08-28T09:07:40.058Z,80.40
2022-08-28T09:11:45.208Z,79.00
2022-08-28T09:15:42.555Z,76.90
2022-08-28T09:19:27.674Z,73.30
2022-08-28T09:23:12.562Z,81.10
2022-08-28T09:27:02.075Z,81.00
2022-08-28T09:30:44.538Z,75.70
2022-08-28T09:34:38.632Z,81.10
2022-08-28T09:38:27.551Z,73.00
2022-08-28T09:42:36.784Z,69.60
2022-08-28T09:46:27.928Z,61.50
2022-08-28T09:50:18.850Z,60.50
2022-08-28T09:54:08.094Z,57.40
2022-08-28T09:57:50.136Z,56.40
2022-08-28T10:01:34.933Z,56.20
2022-08-28T10:05:26.784Z,57.70
2022-08-28T10:09:35.354Z,58.20
2022-08-28T10:13:20.194Z,59.30
2022-08-28T10:17:23.942Z,52.20
2022-08-28T10:21:09.384Z,51.80
2022-08-28T10:25:14.231Z,52.20
2022-08-28T10:29:17.857Z,47.40
2022-08-28T10:33:20.693Z,51.60
2022-08-28T10:37:17.032Z,47.90
2022-08-28T10:41:16.920Z,47.80
2022-08-28T10:45:06.162Z,45.70
2022-08-28T10:48:54.433Z,45.80
2022-08-28T10:52:48.786Z,41.40
2022-08-28T10:56:43.180Z,40.00
2022-08-28T11:00:27.333Z,40.10
2022-08-28T11:04:25.109Z,42.20
2022-08-28T11:08:13.364Z,40.30
2022-08-28T11:12:02.067Z,41.40
2022-08-28T11:15:52.534Z,42.10
2022-08-28T11:20:08.601Z,40.70
2022-08-28T11:24:10.949Z,40.30
2022-08-28T11:28:19.491Z,39.30
2022-08-28T11:32:28.802Z,38.20
2022-08-28T11:36:22.565Z,39.50
2022-08-28T11:40:33.942Z,38.50
2022-08-28T11:44:26.920Z,37.50
2022-08-28T11:48:29.532Z,36.20
2022-08-28T11:52:23.043Z,38.70
2022-08-28T11:56:13.957Z,37.70
2022-08-28T12:00:22.033Z,35.90
2022-08-28T12:04:08.564Z,35.00
2022-08-28T12:07:52.011Z,35.30
2022-08-28T12:11:39.922Z,34.60
2022-08-28T12:15:27.371Z,32.40
2022-08-28T12:19:10.218Z,33.00
2022-08-28T12:22:55.989Z,35.00
2022-08-28T12:26:44.815Z,33.80
2022-08-28T12:30:33.181Z,34.00
2022-08-28T12:34:45.802Z,33.50
2022-08-28T12:38:29.600Z,32.60
2022-08-28T12:42:17.950Z,34.10
2022-08-28T12:46:02.123Z,33.70
2022-08-28T12:49:44.005Z,34.20
2022-08-28T12:53:26.799Z,34.80
2022-08-28T12:57:13.249Z,34.90
2022-08-28T13:00:59.621Z,34.20
2022-08-28T13:04:59.427Z,33.70
2022-08-28T13:08:41.573Z,33.50
2022-08-28T13:12:55.245Z,35.60
2022-08-28T13:16:41.178Z,33.20
2022-08-28T13:20:33.149Z,33.60
2022-08-28T13:24:23.735Z,34.30
2022-08-28T13:28:17.732Z,31.70
2022-08-28T13:32:07.238Z,30.60
2022-08-28T13:35:50.570Z,31.60
2022-08-28T13:39:34.457Z,32.50
2022-08-28T13:43:17.692Z,32.10
2022-08-28T13:47:01.565Z,32.20
2022-08-28T13:50:47.340Z,32.10
2022-08-28T13:54:30.033Z,32.90
2022-08-28T13:58:14.022Z,33.60
2022-08-28T14:02:17.909Z,33.90
2022-08-28T14:05:59.894Z,32.20
2022-08-28T14:09:42.304Z,31.90
2022-08-28T14:13:27.476Z,31.90
2022-08-28T14:17:10.036Z,32.60
2022-08-28T14:20:52.128Z,33.00
2022-08-28T14:24:33.984Z,33.20
2022-08-28T14:28:16.754Z,33.50
2022-08-28T14:32:01.966Z,33.80
2022-08-28T14:35:43.880Z,33.90
2022-08-28T14:39:27.085Z,34.40
2022-08-28T14:43:11.016Z,35.00
2022-08-28T14:46:56.018Z,35.20
2022-08-28T14:50:44.532Z,35.00
2022-08-28T14:54:26.720Z,35.30
2022-08-28T14:58:08.634Z,35.30
2022-08-28T15:01:52.384Z,35.20
2022-08-28T15:05:34.377Z,35.30
2022-08-28T15:09:16.791Z,35.20
2022-08-28T15:12:58.583Z,35.10
2022-08-28T15:16:43.341Z,34.90
2022-08-28T15:20:25.435Z,35.20
2022-08-28T15:24:08.296Z,35.20
2022-08-28T15:27:50.036Z,34.70
2022-08-28T15:31:35.160Z,34.30
2022-08-28T15:35:17.209Z,34.40
2022-08-28T15:39:17.497Z,34.40
2022-08-28T15:42:59.802Z,33.90
2022-08-28T15:46:41.900Z,33.40
2022-08-28T15:50:23.770Z,33.20
2022-08-28T15:54:07.498Z,33.30
2022-08-28T15:57:49.978Z,33.50
2022-08-28T16:01:31.753Z,33.90
2022-08-28T16:05:13.819Z,34.00
2022-08-28T16:08:56.814Z,34.50
2022-08-28T16:12:40.156Z,34.10
2022-08-28T16:16:22.247Z,33.00
2022-08-28T16:20:12.892Z,32.90
2022-08-28T16:23:55.013Z,33.50
2022-08-28T16:27:36.809Z,33.90
2022-08-28T16:31:20.475Z,34.50
2022-08-28T16:35:03.869Z,35.10
2022-08-28T16:38:49.621Z,35.80
2022-08-28T16:42:41.829Z,36.00
2022-08-28T16:46:33.419Z,35.70
2022-08-28T16:50:16.185Z,34.70
2022-08-28T16:53:58.329Z,34.00
2022-08-28T16:57:40.279Z,33.60
2022-08-28T17:01:24.136Z,33.70
2022-08-28T17:05:07.132Z,33.70
2022-08-28T17:08:52.299Z,34.20
2022-08-28T17:12:38.434Z,33.90
2022-08-28T17:16:21.392Z,34.30
2022-08-28T17:20:05.391Z,34.50
2022-08-28T17:23:47.690Z,35.00
2022-08-28T17:27:32.036Z,35.50
2022-08-28T17:31:14.496Z,35.80
2022-08-28T17:34:56.500Z,36.10
2022-08-28T17:38:38.770Z,36.40
2022-08-28T17:42:20.833Z,36.70
2022-08-28T17:46:04.711Z,37.00
2022-08-28T17:49:46.785Z,37.00
2022-08-28T17:53:29.682Z,37.00
2022-08-28T17:57:11.625Z,37.90
2022-08-28T18:00:53.636Z,37.20
2022-08-28T18:04:36.336Z,37.50
2022-08-28T18:08:18.314Z,37.80
2022-08-28T18:12:00.161Z,38.00
2022-08-28T18:15:43.369Z,38.20
2022-08-28T18:19:25.432Z,38.50
2022-08-28T18:23:07.461Z,38.80
2022-08-28T18:26:49.282Z,39.00
2022-08-28T18:30:31.537Z,39.30
2022-08-28T18:34:13.409Z,39.50
2022-08-28T18:37:56.417Z,39.80
2022-08-28T18:41:43.502Z,40.20
2022-08-28T18:45:26.406Z,40.50
2022-08-28T18:49:12.410Z,40.70
2022-08-28T18:52:56.002Z,41.70
2022-08-28T18:56:38.344Z,41.30
2022-08-28T19:00:20.320Z,41.50
2022-08-28T19:04:02.342Z,42.40
2022-08-28T19:07:44.512Z,41.90
2022-08-28T19:11:26.893Z,42.20
2022-08-28T19:15:10.716Z,42.40
2022-08-28T19:18:55.260Z,42.70
2022-08-28T19:22:37.590Z,42.70
2022-08-28T19:26:19.711Z,43.00
2022-08-28T19:30:03.974Z,43.20
2022-08-28T19:33:46.978Z,43.40
2022-08-28T19:37:29.589Z,43.70
2022-08-28T19:41:12.089Z,43.90
2022-08-28T19:44:59.970Z,44.10
2022-08-28T19:48:42.060Z,44.20
2022-08-28T19:52:23.873Z,44.40
2022-08-28T19:56:07.346Z,44.60
2022-08-28T19:59:49.187Z,45.00
2022-08-28T20:03:31.062Z,44.90
2022-08-28T20:07:13.116Z,45.00
2022-08-28T20:10:54.990Z,45.10
2022-08-28T20:14:38.804Z,45.30
2022-08-28T20:18:21.581Z,45.50
2022-08-28T20:22:03.814Z,45.60
2022-08-28T20:25:49.525Z,45.80
2022-08-28T20:29:33.693Z,46.70
2022-08-28T20:33:15.528Z,46.30
2022-08-28T20:36:57.453Z,46.30
2022-08-28T20:40:39.347Z,46.50
2022-08-28T20:44:22.531Z,46.70
2022-08-28T20:48:04.544Z,47.00
2022-08-28T20:52:01.782Z,47.00
2022-08-28T20:55:43.816Z,47.20
2022-08-28T20:59:34.557Z,47.40
2022-08-28T21:03:23.416Z,47.60
2022-08-28T21:07:10.783Z,47.90
2022-08-28T21:10:52.786Z,48.20
2022-08-28T21:14:35.241Z,48.30
2022-08-28T21:18:17.048Z,48.60
2022-08-28T21:21:59.491Z,48.80
2022-08-28T21:25:41.639Z,49.10
2022-08-28T21:29:23.744Z,49.40
2022-08-28T21:33:05.559Z,49.60
2022-08-28T21:36:50.579Z,49.90
2022-08-28T21:40:35.180Z,50.50
2022-08-28T21:44:17.665Z,50.30
2022-08-28T21:47:59.683Z,50.80
2022-08-28T21:51:41.497Z,51.00
2022-08-28T21:55:24.974Z,51.30
2022-08-28T21:59:06.816Z,52.40
2022-08-28T22:02:49.581Z,51.90
2022-08-28T22:06:31.778Z,52.40
2022-08-28T22:10:14.002Z,52.60
2022-08-28T22:13:56.877Z,53.00
2022-08-28T22:17:38.707Z,53.60
2022-08-28T22:21:42.450Z,53.70
2022-08-28T22:25:24.362Z,55.40
2022-08-28T22:29:06.213Z,54.40
2022-08-28T22:32:48.180Z,54.90
2022-08-28T22:36:30.225Z,55.30
2022-08-28T22:40:13.221Z,55.70
2022-08-28T22:43:55.649Z,56.10
2022-08-28T22:47:37.601Z,56.30
2022-08-28T22:51:19.590Z,56.80
2022-08-28T22:55:01.537Z,57.00
2022-08-28T22:58:43.937Z,57.70
2022-08-28T23:02:27.261Z,57.80
2022-08-28T23:06:09.429Z,58.10
2022-08-28T23:09:51.253Z,58.50
2022-08-28T23:13:33.272Z,58.40
2022-08-28T23:17:15.089Z,58.50
2022-08-28T23:20:59.589Z,58.50
2022-08-28T23:24:42.128Z,59.50
2022-08-28T23:28:23.898Z,58.90
2022-08-28T23:32:07.264Z,59.00
2022-08-28T23:35:49.190Z,59.00
2022-08-28T23:39:31.622Z,59.10
2022-08-28T23:43:13.865Z,59.20
2022-08-28T23:46:56.164Z,59.30
2022-08-28T23:50:40.987Z,59.30
2022-08-28T23:54:23.228Z,60.40
2022-08-28T23:58:05.927Z,59.90
